createdAt,value
2019-04-28T00:00:22.948Z,0
2019-04-28T00:01:35.014Z,0
2019-04-28T00:02:47.341Z,0
2019-04-28T00:03:59.546Z,0
2019-04-28T00:05:12.110Z,0
2019-04-28T00:06:23.936Z,0
2019-04-28T00:07:36.142Z,0
2019-04-28T00:08:48.336Z,0
2019-04-28T00:10:00.534Z,0
2019-04-28T00:11:12.731Z,0
2019-04-28T00:12:24.932Z,0
2019-04-28T00:13:37.147Z,0
2019-04-28T00:14:49.335Z,0
2019-04-28T00:16:01.053Z,0
2019-04-28T00:17:13.073Z,0
2019-04-28T00:18:25.934Z,0
2019-04-28T00:19:38.134Z,0
2019-04-28T00:20:50.325Z,0
2019-04-28T00:22:02.526Z,0
2019-04-28T00:23:14.733Z,0
2019-04-28T00:24:26.928Z,0
2019-04-28T00:25:39.118Z,0
2019-04-28T00:26:51.326Z,0
2019-04-28T00:28:03.525Z,0
2019-04-28T00:29:15.723Z,0
2019-04-28T00:30:27.924Z,0
2019-04-28T00:31:40.124Z,0
2019-04-28T00:32:52.316Z,0
2019-04-28T00:34:04.515Z,0
2019-04-28T00:35:16.706Z,0
2019-04-28T00:36:28.914Z,0
2019-04-28T00:37:41.112Z,0
2019-04-28T00:38:53.314Z,0
2019-04-28T00:40:05.051Z,0
2019-04-28T00:41:17.708Z,0
2019-04-28T00:42:29.912Z,0
2019-04-28T00:43:42.114Z,0
2019-04-28T00:44:54.372Z,0
2019-04-28T00:46:06.524Z,0
2019-04-28T00:47:18.708Z,0
2019-04-28T00:48:30.902Z,0
2019-04-28T00:49:43.010Z,0
2019-04-28T00:50:55.331Z,0
2019-04-28T00:52:07.509Z,0
2019-04-28T00:53:19.704Z,0
2019-04-28T00:54:31.896Z,0
2019-04-28T00:55:44.177Z,0
2019-04-28T00:56:56.031Z,0
2019-04-28T00:58:08.496Z,0
2019-04-28T00:59:20.007Z,0
2019-04-28T01:00:32.901Z,0
2019-04-28T01:01:45.009Z,0
2019-04-28T01:02:57.029Z,0
2019-04-28T01:04:09.494Z,0
2019-04-28T01:05:21.690Z,0
2019-04-28T01:06:33.892Z,0
2019-04-28T01:07:46.088Z,0
2019-04-28T01:08:58.288Z,0
2019-04-28T01:10:10.491Z,0
2019-04-28T01:11:22.698Z,0
2019-04-28T01:12:34.889Z,0
2019-04-28T01:13:47.092Z,0
2019-04-28T01:14:59.280Z,0
2019-04-28T01:16:11.479Z,0
2019-04-28T01:17:23.678Z,0
2019-04-28T01:18:35.879Z,0
2019-04-28T01:19:48.079Z,0
2019-04-28T01:21:00.303Z,0
2019-04-28T01:22:12.515Z,0
2019-04-28T01:23:24.934Z,0
2019-04-28T01:24:36.880Z,0
2019-04-28T01:25:49.078Z,0
2019-04-28T01:27:01.274Z,0
2019-04-28T01:28:13.469Z,0
2019-04-28T01:29:25.670Z,0
2019-04-28T01:30:37.871Z,0
2019-04-28T01:33:02.266Z,0
2019-04-28T01:34:14.504Z,0
2019-04-28T01:35:26.667Z,0
2019-04-28T01:36:38.866Z,0
2019-04-28T01:37:51.073Z,0
2019-04-28T01:39:03.267Z,0
2019-04-28T01:40:15.460Z,0
2019-04-28T01:41:27.659Z,0
2019-04-28T01:42:39.863Z,0
2019-04-28T01:43:52.005Z,0
2019-04-28T01:45:04.256Z,0
2019-04-28T01:46:16.451Z,0
2019-04-28T01:47:28.657Z,0
2019-04-28T01:48:40.853Z,0
2019-04-28T01:49:53.278Z,0
2019-04-28T01:51:05.258Z,0
2019-04-28T01:52:17.455Z,0
2019-04-28T01:53:29.657Z,0
2019-04-28T01:54:41.845Z,0
2019-04-28T01:55:54.039Z,0
2019-04-28T01:57:06.246Z,0
2019-04-28T01:58:18.459Z,0
2019-04-28T01:59:30.647Z,0
2019-04-28T02:00:42.849Z,0
2019-04-28T02:01:55.047Z,0
2019-04-28T02:03:07.239Z,0
2019-04-28T02:04:19.443Z,0
2019-04-28T02:05:31.644Z,0
2019-04-28T02:06:43.838Z,0
2019-04-28T02:07:56.035Z,0
2019-04-28T02:09:08.483Z,0
2019-04-28T02:10:20.432Z,0
2019-04-28T02:11:32.639Z,0
2019-04-28T02:12:45.017Z,0
2019-04-28T02:13:57.033Z,0
2019-04-28T02:15:09.231Z,0
2019-04-28T02:16:21.433Z,0
2019-04-28T02:17:33.634Z,0
2019-04-28T02:19:58.000Z,0
2019-04-28T02:21:10.248Z,0
2019-04-28T02:22:22.428Z,0
2019-04-28T02:23:34.625Z,0
2019-04-28T02:24:46.824Z,0
2019-04-28T02:25:59.023Z,0
2019-04-28T02:27:11.222Z,0
2019-04-28T02:28:23.043Z,0
2019-04-28T02:29:35.628Z,0
2019-04-28T02:30:47.825Z,0
2019-04-28T02:32:00.020Z,0
2019-04-28T02:33:12.225Z,0
2019-04-28T02:34:24.409Z,0
2019-04-28T02:35:36.060Z,0
2019-04-28T02:36:48.811Z,0
2019-04-28T02:38:01.009Z,0
2019-04-28T02:39:13.209Z,0
2019-04-28T02:40:25.446Z,0
2019-04-28T02:41:37.603Z,0
2019-04-28T02:44:02.001Z,0
2019-04-28T02:45:14.021Z,0
2019-04-28T02:46:26.409Z,0
2019-04-28T02:47:38.061Z,0
2019-04-28T02:48:50.799Z,0
2019-04-28T02:50:03.012Z,0
2019-04-28T02:51:15.217Z,0
2019-04-28T02:52:27.400Z,0
2019-04-28T02:53:39.597Z,0
2019-04-28T02:54:51.079Z,0
2019-04-28T02:56:04.006Z,0
2019-04-28T02:57:16.201Z,0
2019-04-28T02:58:28.422Z,0
2019-04-28T02:59:40.597Z,0
2019-04-28T03:02:04.999Z,0
2019-04-28T03:03:17.190Z,0
2019-04-28T03:04:29.381Z,0
2019-04-28T03:05:41.592Z,0
2019-04-28T03:06:53.788Z,0
2019-04-28T03:08:05.987Z,0
2019-04-28T03:09:18.233Z,0
2019-04-28T03:10:30.382Z,0
2019-04-28T03:11:42.588Z,0
2019-04-28T03:12:54.788Z,0
2019-04-28T03:14:06.986Z,0
2019-04-28T03:15:19.186Z,0
2019-04-28T03:16:31.392Z,0
2019-04-28T03:17:43.583Z,0
2019-04-28T03:18:55.776Z,0
2019-04-28T03:20:07.987Z,0
2019-04-28T03:21:20.696Z,0
2019-04-28T03:22:32.872Z,0
2019-04-28T03:23:44.009Z,0
2019-04-28T03:24:56.776Z,0
2019-04-28T03:26:08.993Z,0
2019-04-28T03:27:21.182Z,0
2019-04-28T03:28:33.380Z,0
2019-04-28T03:29:45.572Z,0
2019-04-28T03:30:57.077Z,0
2019-04-28T03:32:09.979Z,0
2019-04-28T03:33:22.158Z,0
2019-04-28T03:34:34.364Z,0
2019-04-28T03:35:46.564Z,0
2019-04-28T03:36:58.800Z,0
2019-04-28T03:38:10.964Z,0
2019-04-28T03:39:23.158Z,0
2019-04-28T03:40:35.364Z,0
2019-04-28T03:41:47.564Z,0
2019-04-28T03:42:59.831Z,0
2019-04-28T03:44:11.979Z,0
2019-04-28T03:45:24.170Z,0
2019-04-28T03:46:36.364Z,0
2019-04-28T03:47:48.555Z,0
2019-04-28T03:49:00.752Z,0
2019-04-28T03:50:12.947Z,0
2019-04-28T03:51:25.157Z,0
2019-04-28T03:52:37.892Z,0
2019-04-28T03:53:49.555Z,0
2019-04-28T03:55:01.757Z,0
2019-04-28T03:56:13.968Z,0
2019-04-28T03:57:26.154Z,0
2019-04-28T03:58:38.352Z,0
2019-04-28T03:59:50.833Z,0
2019-04-28T04:01:02.754Z,0
2019-04-28T04:02:14.947Z,0
2019-04-28T04:03:27.146Z,0
2019-04-28T04:04:39.341Z,0
2019-04-28T04:05:51.545Z,0
2019-04-28T04:07:03.742Z,0
2019-04-28T04:09:28.134Z,0
2019-04-28T04:10:40.341Z,0
2019-04-28T04:11:52.542Z,0
2019-04-28T04:13:04.747Z,0
2019-04-28T04:14:16.948Z,0
2019-04-28T04:15:29.134Z,0
2019-04-28T04:16:41.354Z,0
2019-04-28T04:17:53.530Z,0
2019-04-28T04:19:05.725Z,0
2019-04-28T04:20:17.931Z,0
2019-04-28T04:21:30.132Z,0
2019-04-28T04:22:42.331Z,0
2019-04-28T04:23:54.608Z,0
2019-04-28T04:25:06.072Z,0
2019-04-28T04:27:31.022Z,0
2019-04-28T04:28:43.335Z,0
2019-04-28T04:29:55.531Z,0
2019-04-28T04:31:07.718Z,0
2019-04-28T04:32:19.913Z,0
2019-04-28T04:33:32.012Z,0
2019-04-28T04:34:44.321Z,0
2019-04-28T04:35:56.527Z,0
2019-04-28T04:37:08.717Z,0
2019-04-28T04:38:20.918Z,0
2019-04-28T04:40:45.348Z,0
2019-04-28T04:41:57.519Z,0
2019-04-28T04:43:09.723Z,0
2019-04-28T04:44:21.915Z,0
2019-04-28T04:45:34.110Z,0
2019-04-28T04:46:46.307Z,0
2019-04-28T04:47:58.507Z,0
2019-04-28T04:49:10.711Z,0
2019-04-28T04:50:22.908Z,0
2019-04-28T04:51:35.107Z,0
2019-04-28T04:52:47.311Z,0
2019-04-28T04:53:59.500Z,0
2019-04-28T04:55:11.707Z,0
2019-04-28T04:56:23.905Z,0
2019-04-28T04:57:36.105Z,5
2019-04-28T04:58:48.295Z,5
2019-04-28T05:00:00.502Z,5
2019-04-28T05:01:12.697Z,5
2019-04-28T05:02:24.089Z,5
2019-04-28T05:03:37.102Z,5
2019-04-28T05:04:49.297Z,5
2019-04-28T05:06:01.050Z,5
2019-04-28T05:07:13.691Z,5
2019-04-28T05:08:25.897Z,5
2019-04-28T05:09:38.097Z,5
2019-04-28T05:10:50.308Z,5
2019-04-28T05:12:02.485Z,5
2019-04-28T05:13:14.677Z,5
2019-04-28T05:14:26.883Z,5
2019-04-28T05:15:39.098Z,5
2019-04-28T05:16:51.027Z,5
2019-04-28T05:18:03.486Z,5
2019-04-28T05:19:15.688Z,11
2019-04-28T05:20:27.885Z,11
2019-04-28T05:21:40.085Z,11
2019-04-28T05:22:52.285Z,11
2019-04-28T05:24:04.481Z,16
2019-04-28T05:25:16.685Z,16
2019-04-28T05:26:28.887Z,16
2019-04-28T05:27:41.075Z,16
2019-04-28T05:28:53.273Z,16
2019-04-28T05:30:05.468Z,22
2019-04-28T05:31:17.675Z,22
2019-04-28T05:32:29.874Z,22
2019-04-28T05:33:42.073Z,22
2019-04-28T05:34:54.273Z,22
2019-04-28T05:36:06.465Z,16
2019-04-28T05:37:18.684Z,16
2019-04-28T05:38:30.879Z,11
2019-04-28T05:39:43.065Z,11
2019-04-28T05:40:55.261Z,11
2019-04-28T05:42:07.466Z,5
2019-04-28T05:43:19.691Z,11
2019-04-28T05:44:31.861Z,11
2019-04-28T05:45:44.056Z,11
2019-04-28T05:46:56.259Z,11
2019-04-28T05:48:08.469Z,11
2019-04-28T05:49:20.662Z,11
2019-04-28T05:50:32.086Z,11
2019-04-28T05:51:45.063Z,11
2019-04-28T05:52:57.026Z,11
2019-04-28T05:54:09.459Z,11
2019-04-28T05:55:21.664Z,11
2019-04-28T05:56:33.853Z,16
2019-04-28T05:57:46.050Z,16
2019-04-28T05:58:58.248Z,22
2019-04-28T06:00:10.044Z,22
2019-04-28T06:01:22.652Z,22
2019-04-28T06:02:34.085Z,28
2019-04-28T06:03:47.047Z,28
2019-04-28T06:04:59.245Z,28
2019-04-28T06:06:11.448Z,33
2019-04-28T06:07:23.639Z,33
2019-04-28T06:08:35.832Z,39
2019-04-28T06:09:48.043Z,39
2019-04-28T06:11:00.260Z,39
2019-04-28T06:12:12.441Z,39
2019-04-28T06:13:24.637Z,45
2019-04-28T06:14:36.840Z,50
2019-04-28T06:15:49.037Z,56
2019-04-28T06:17:01.237Z,56
2019-04-28T06:18:13.440Z,56
2019-04-28T06:19:25.638Z,56
2019-04-28T06:20:37.838Z,56
2019-04-28T06:21:50.041Z,56
2019-04-28T06:23:02.236Z,56
2019-04-28T06:24:14.428Z,61
2019-04-28T06:25:26.626Z,61
2019-04-28T06:26:38.826Z,61
2019-04-28T06:27:51.018Z,61
2019-04-28T06:29:03.225Z,56
2019-04-28T06:30:15.424Z,50
2019-04-28T06:31:27.629Z,45
2019-04-28T06:32:39.829Z,45
2019-04-28T06:33:52.019Z,45
2019-04-28T06:35:04.226Z,45
2019-04-28T06:36:16.424Z,45
2019-04-28T06:37:28.620Z,45
2019-04-28T06:38:40.824Z,50
2019-04-28T06:39:53.026Z,50
2019-04-28T06:41:05.220Z,50
2019-04-28T06:42:17.417Z,56
2019-04-28T06:43:29.060Z,56
2019-04-28T06:45:54.035Z,67
2019-04-28T06:47:06.219Z,73
2019-04-28T06:48:18.041Z,78
2019-04-28T06:49:30.615Z,78
2019-04-28T06:50:42.807Z,78
2019-04-28T06:51:55.056Z,78
2019-04-28T06:53:07.214Z,73
2019-04-28T06:54:19.412Z,67
2019-04-28T06:55:31.604Z,61
2019-04-28T06:56:43.799Z,61
2019-04-28T06:57:56.000Z,61
2019-04-28T06:59:08.211Z,56
2019-04-28T07:00:20.395Z,56
2019-04-28T07:01:32.060Z,56
2019-04-28T07:02:44.800Z,50
2019-04-28T07:03:57.003Z,56
2019-04-28T07:05:09.202Z,61
2019-04-28T07:06:21.404Z,67
2019-04-28T07:07:33.060Z,78
2019-04-28T07:08:45.801Z,84
2019-04-28T07:09:57.991Z,84
2019-04-28T07:11:10.191Z,78
2019-04-28T07:12:22.494Z,78
2019-04-28T07:13:34.584Z,78
2019-04-28T07:14:46.790Z,78
2019-04-28T07:15:58.988Z,78
2019-04-28T07:17:11.191Z,78
2019-04-28T07:18:23.038Z,78
2019-04-28T07:19:35.586Z,84
2019-04-28T07:20:47.790Z,101
2019-04-28T07:21:59.993Z,123
2019-04-28T07:23:12.185Z,157
2019-04-28T07:24:24.003Z,168
2019-04-28T07:25:36.592Z,163
2019-04-28T07:26:48.780Z,140
2019-04-28T07:28:00.980Z,123
2019-04-28T07:29:13.174Z,106
2019-04-28T07:30:25.379Z,95
2019-04-28T07:32:49.077Z,84
2019-04-28T07:34:01.098Z,90
2019-04-28T07:35:14.178Z,101
2019-04-28T07:36:26.372Z,106
2019-04-28T07:37:38.058Z,118
2019-04-28T07:38:50.773Z,112
2019-04-28T07:40:02.975Z,118
2019-04-28T07:41:15.188Z,123
2019-04-28T07:42:27.359Z,129
2019-04-28T07:43:39.567Z,140
2019-04-28T07:44:51.766Z,146
2019-04-28T07:46:03.965Z,151
2019-04-28T07:47:16.016Z,157
2019-04-28T07:48:28.366Z,157
2019-04-28T07:49:40.571Z,157
2019-04-28T07:50:52.767Z,157
2019-04-28T07:52:04.959Z,163
2019-04-28T07:53:17.172Z,163
2019-04-28T07:54:29.372Z,157
2019-04-28T07:55:41.005Z,157
2019-04-28T07:56:53.767Z,146
2019-04-28T07:58:05.961Z,140
2019-04-28T07:59:18.149Z,135
2019-04-28T08:00:30.353Z,146
2019-04-28T08:01:42.553Z,151
2019-04-28T08:02:54.788Z,146
2019-04-28T08:04:06.953Z,146
2019-04-28T08:05:19.015Z,140
2019-04-28T08:06:31.035Z,140
2019-04-28T08:07:43.553Z,140
2019-04-28T08:08:55.763Z,140
2019-04-28T08:10:07.953Z,140
2019-04-28T08:11:20.147Z,135
2019-04-28T08:12:32.353Z,129
2019-04-28T08:13:44.565Z,129
2019-04-28T08:14:56.741Z,135
2019-04-28T08:16:08.944Z,140
2019-04-28T08:17:21.151Z,140
2019-04-28T08:18:33.345Z,140
2019-04-28T08:19:45.644Z,140
2019-04-28T08:20:57.741Z,135
2019-04-28T08:22:09.952Z,135
2019-04-28T08:23:22.144Z,146
2019-04-28T08:24:34.339Z,151
2019-04-28T08:25:46.565Z,151
2019-04-28T08:26:58.741Z,151
2019-04-28T08:28:10.947Z,140
2019-04-28T08:29:23.141Z,135
2019-04-28T08:30:35.336Z,135
2019-04-28T08:31:47.534Z,140
2019-04-28T08:32:59.729Z,135
2019-04-28T08:34:11.938Z,135
2019-04-28T08:36:36.339Z,146
2019-04-28T08:37:48.525Z,146
2019-04-28T08:39:00.072Z,151
2019-04-28T08:40:12.932Z,151
2019-04-28T08:41:25.131Z,140
2019-04-28T08:42:37.331Z,123
2019-04-28T08:43:49.525Z,129
2019-04-28T08:45:01.073Z,129
2019-04-28T08:46:13.926Z,123
2019-04-28T08:47:26.119Z,118
2019-04-28T08:48:38.320Z,112
2019-04-28T08:49:50.523Z,118
2019-04-28T08:51:02.711Z,123
2019-04-28T08:52:14.920Z,123
2019-04-28T08:53:27.132Z,129
2019-04-28T08:54:39.350Z,135
2019-04-28T08:57:03.713Z,118
2019-04-28T08:58:15.943Z,101
2019-04-28T08:59:28.013Z,84
2019-04-28T09:00:40.315Z,84
2019-04-28T09:01:52.520Z,73
2019-04-28T09:03:04.720Z,73
2019-04-28T09:04:16.918Z,73
2019-04-28T09:05:29.011Z,67
2019-04-28T09:06:41.768Z,67
2019-04-28T09:07:53.510Z,61
2019-04-28T09:09:05.737Z,56
2019-04-28T09:10:17.916Z,50
2019-04-28T09:11:30.170Z,56
2019-04-28T09:12:42.315Z,56
2019-04-28T09:13:54.522Z,50
2019-04-28T09:15:06.726Z,50
2019-04-28T09:16:18.927Z,50
2019-04-28T09:17:31.477Z,45
2019-04-28T09:18:43.326Z,50
2019-04-28T09:19:55.522Z,50
2019-04-28T09:21:07.726Z,50
2019-04-28T09:22:19.926Z,56
2019-04-28T09:23:32.124Z,50
2019-04-28T09:24:44.329Z,56
2019-04-28T09:25:56.575Z,61
2019-04-28T09:27:08.736Z,61
2019-04-28T09:28:20.998Z,67
2019-04-28T09:29:33.128Z,73
2019-04-28T09:30:45.341Z,73
2019-04-28T09:31:57.577Z,73
2019-04-28T09:33:09.735Z,73
2019-04-28T09:34:21.936Z,73
2019-04-28T09:35:34.013Z,78
2019-04-28T09:36:46.332Z,78
2019-04-28T09:37:58.536Z,90
2019-04-28T09:39:10.738Z,90
2019-04-28T09:40:23.312Z,90
2019-04-28T09:41:35.137Z,95
2019-04-28T09:42:47.346Z,90
2019-04-28T09:43:59.542Z,95
2019-04-28T09:45:11.751Z,101
2019-04-28T09:46:23.938Z,112
2019-04-28T09:47:36.163Z,123
2019-04-28T09:48:48.344Z,129
2019-04-28T09:50:00.546Z,146
2019-04-28T09:51:12.744Z,140
2019-04-28T09:52:24.094Z,135
2019-04-28T09:53:37.150Z,129
2019-04-28T09:54:49.346Z,135
2019-04-28T09:56:01.565Z,129
2019-04-28T09:57:13.758Z,129
2019-04-28T09:58:25.955Z,118
2019-04-28T09:59:38.144Z,106
2019-04-28T10:00:50.357Z,106
2019-04-28T10:02:02.553Z,101
2019-04-28T10:03:14.074Z,101
2019-04-28T10:04:26.953Z,112
2019-04-28T10:05:39.150Z,112
2019-04-28T10:06:51.352Z,101
2019-04-28T10:08:03.550Z,95
2019-04-28T10:09:15.075Z,95
2019-04-28T10:10:27.966Z,95
2019-04-28T10:11:40.001Z,90
2019-04-28T10:12:52.359Z,84
2019-04-28T10:14:04.567Z,78
2019-04-28T10:15:16.762Z,78
2019-04-28T10:16:28.095Z,78
2019-04-28T10:17:41.162Z,78
2019-04-28T10:18:53.362Z,78
2019-04-28T10:20:05.567Z,78
2019-04-28T10:21:17.759Z,78
2019-04-28T10:22:29.953Z,78
2019-04-28T10:23:42.236Z,78
2019-04-28T10:24:54.377Z,78
2019-04-28T10:26:06.651Z,73
2019-04-28T10:27:18.079Z,73
2019-04-28T10:28:30.963Z,73
2019-04-28T10:29:43.177Z,73
2019-04-28T10:30:55.414Z,78
2019-04-28T10:32:07.565Z,84
2019-04-28T10:33:19.769Z,84
2019-04-28T10:34:31.981Z,84
2019-04-28T10:35:44.181Z,84
2019-04-28T10:36:56.380Z,84
2019-04-28T10:38:08.919Z,84
2019-04-28T10:39:20.790Z,78
2019-04-28T10:40:32.996Z,78
2019-04-28T10:41:45.177Z,78
2019-04-28T10:42:57.379Z,78
2019-04-28T10:44:09.579Z,84
2019-04-28T10:45:21.774Z,90
2019-04-28T10:46:33.977Z,90
2019-04-28T10:47:46.228Z,90
2019-04-28T10:48:58.388Z,84
2019-04-28T10:50:10.589Z,78
2019-04-28T10:51:22.783Z,78
2019-04-28T10:52:34.991Z,73
2019-04-28T10:53:47.193Z,73
2019-04-28T10:54:59.395Z,67
2019-04-28T10:56:11.688Z,61
2019-04-28T10:57:23.788Z,61
2019-04-28T10:58:35.989Z,56
2019-04-28T11:01:00.389Z,56
2019-04-28T11:02:12.621Z,56
2019-04-28T11:03:24.796Z,56
2019-04-28T11:04:37.000Z,56
2019-04-28T11:05:49.196Z,56
2019-04-28T11:07:01.396Z,61
2019-04-28T11:08:13.598Z,67
2019-04-28T11:09:25.798Z,73
2019-04-28T11:10:37.997Z,61
2019-04-28T11:11:50.199Z,56
2019-04-28T11:13:02.398Z,50
2019-04-28T11:14:14.591Z,56
2019-04-28T11:15:26.797Z,56
2019-04-28T11:16:39.007Z,50
2019-04-28T11:17:51.020Z,56
2019-04-28T11:19:03.406Z,50
2019-04-28T11:20:15.599Z,50
2019-04-28T11:21:27.805Z,50
2019-04-28T11:22:40.011Z,45
2019-04-28T11:23:52.020Z,45
2019-04-28T11:25:04.406Z,50
2019-04-28T11:26:16.636Z,50
2019-04-28T11:27:28.808Z,50
2019-04-28T11:28:41.006Z,50
2019-04-28T11:29:53.020Z,45
2019-04-28T11:31:05.410Z,45
2019-04-28T11:32:17.615Z,50
2019-04-28T11:33:29.817Z,50
2019-04-28T11:34:42.014Z,50
2019-04-28T11:35:54.226Z,50
2019-04-28T11:37:06.411Z,56
2019-04-28T11:38:18.615Z,61
2019-04-28T11:39:30.901Z,67
2019-04-28T11:40:43.009Z,73
2019-04-28T11:41:55.215Z,73
2019-04-28T11:43:07.425Z,67
2019-04-28T11:44:19.624Z,67
2019-04-28T11:45:31.824Z,61
2019-04-28T11:46:44.020Z,61
2019-04-28T11:47:56.227Z,56
2019-04-28T11:49:08.421Z,56
2019-04-28T11:50:20.627Z,56
2019-04-28T11:51:32.822Z,61
2019-04-28T11:52:45.023Z,61
2019-04-28T11:53:57.216Z,67
2019-04-28T11:55:09.443Z,67
2019-04-28T11:56:21.063Z,67
2019-04-28T11:57:33.824Z,67
2019-04-28T11:58:46.033Z,67
2019-04-28T11:59:58.232Z,73
2019-04-28T12:01:10.435Z,73
2019-04-28T12:02:22.063Z,73
2019-04-28T12:03:34.834Z,67
2019-04-28T12:04:47.566Z,61
2019-04-28T12:05:59.225Z,50
2019-04-28T12:07:11.436Z,50
2019-04-28T12:08:23.641Z,50
2019-04-28T12:09:35.838Z,56
2019-04-28T12:10:48.049Z,61
2019-04-28T12:12:00.240Z,61
2019-04-28T12:13:12.465Z,61
2019-04-28T12:14:24.645Z,56
2019-04-28T12:15:36.840Z,50
2019-04-28T12:16:49.039Z,50
2019-04-28T12:18:01.242Z,50
2019-04-28T12:19:13.440Z,50
2019-04-28T12:20:25.640Z,56
2019-04-28T12:21:37.841Z,56
2019-04-28T12:22:50.036Z,61
2019-04-28T12:24:02.251Z,67
2019-04-28T12:25:14.457Z,73
2019-04-28T12:26:26.006Z,73
2019-04-28T12:27:38.852Z,67
2019-04-28T12:28:51.045Z,61
2019-04-28T12:30:03.248Z,61
2019-04-28T12:31:15.462Z,56
2019-04-28T12:32:27.646Z,56
2019-04-28T12:33:39.853Z,50
2019-04-28T12:34:52.050Z,50
2019-04-28T12:36:04.262Z,50
2019-04-28T12:37:16.459Z,50
2019-04-28T12:38:28.662Z,50
2019-04-28T12:39:40.860Z,50
2019-04-28T12:40:53.059Z,50
2019-04-28T12:42:05.267Z,50
2019-04-28T12:43:17.459Z,50
2019-04-28T12:44:29.665Z,50
2019-04-28T12:45:41.854Z,56
2019-04-28T12:46:54.060Z,56
2019-04-28T12:48:06.260Z,56
2019-04-28T12:49:18.460Z,56
2019-04-28T12:50:30.686Z,56
2019-04-28T12:51:42.867Z,56
2019-04-28T12:52:55.065Z,56
2019-04-28T12:54:07.269Z,56
2019-04-28T12:55:19.535Z,61
2019-04-28T12:56:31.668Z,67
2019-04-28T12:57:43.868Z,67
2019-04-28T12:58:56.069Z,67
2019-04-28T13:00:08.280Z,73
2019-04-28T13:01:20.480Z,73
2019-04-28T13:02:32.678Z,78
2019-04-28T13:03:44.887Z,73
2019-04-28T13:04:57.080Z,73
2019-04-28T13:06:09.283Z,73
2019-04-28T13:07:21.481Z,73
2019-04-28T13:08:33.673Z,73
2019-04-28T13:09:45.879Z,73
2019-04-28T13:10:58.080Z,67
2019-04-28T13:12:10.279Z,67
2019-04-28T13:13:22.487Z,67
2019-04-28T13:14:34.683Z,73
2019-04-28T13:15:46.889Z,73
2019-04-28T13:16:59.090Z,78
2019-04-28T13:18:11.287Z,73
2019-04-28T13:19:23.522Z,73
2019-04-28T13:20:35.690Z,67
2019-04-28T13:21:47.891Z,67
2019-04-28T13:23:00.090Z,67
2019-04-28T13:24:12.282Z,67
2019-04-28T13:25:25.229Z,73
2019-04-28T13:26:37.184Z,73
2019-04-28T13:27:48.903Z,78
2019-04-28T13:29:01.099Z,84
2019-04-28T13:30:13.002Z,90
2019-04-28T13:31:25.490Z,95
2019-04-28T13:32:37.069Z,101
2019-04-28T13:33:49.899Z,106
2019-04-28T13:35:02.093Z,118
2019-04-28T13:36:14.301Z,123
2019-04-28T13:37:26.499Z,118
2019-04-28T13:38:38.709Z,118
2019-04-28T13:39:50.948Z,112
2019-04-28T13:41:03.103Z,112
2019-04-28T13:42:15.344Z,112
2019-04-28T13:43:27.507Z,123
2019-04-28T13:44:39.070Z,118
2019-04-28T13:45:51.907Z,106
2019-04-28T13:47:04.107Z,112
2019-04-28T13:48:16.309Z,123
2019-04-28T13:49:28.517Z,129
2019-04-28T13:50:40.715Z,135
2019-04-28T13:51:52.919Z,140
2019-04-28T13:53:05.011Z,146
2019-04-28T13:54:17.624Z,146
2019-04-28T13:55:29.528Z,140
2019-04-28T13:56:41.071Z,129
2019-04-28T13:57:54.416Z,123
2019-04-28T13:59:06.116Z,118
2019-04-28T14:00:18.333Z,118
2019-04-28T14:01:30.528Z,112
2019-04-28T14:02:42.728Z,101
2019-04-28T14:03:54.918Z,112
2019-04-28T14:05:07.125Z,112
2019-04-28T14:06:19.327Z,140
2019-04-28T14:07:31.523Z,140
2019-04-28T14:08:43.724Z,174
2019-04-28T14:09:55.928Z,180
2019-04-28T14:11:08.136Z,157
2019-04-28T14:12:20.336Z,140
2019-04-28T14:13:32.538Z,118
2019-04-28T14:14:44.734Z,95
2019-04-28T14:15:56.935Z,90
2019-04-28T14:17:09.130Z,84
2019-04-28T14:18:21.335Z,78
2019-04-28T14:19:33.548Z,61
2019-04-28T14:20:45.747Z,61
2019-04-28T14:21:57.943Z,67
2019-04-28T14:23:10.137Z,78
2019-04-28T14:24:22.343Z,67
2019-04-28T14:25:34.544Z,90
2019-04-28T14:26:46.740Z,101
2019-04-28T14:27:58.944Z,95
2019-04-28T14:29:11.017Z,95
2019-04-28T14:30:23.389Z,106
2019-04-28T14:31:35.554Z,90
2019-04-28T14:32:47.751Z,84
2019-04-28T14:33:59.953Z,90
2019-04-28T14:35:12.156Z,78
2019-04-28T14:36:24.003Z,84
2019-04-28T14:37:36.055Z,78
2019-04-28T14:38:48.759Z,84
2019-04-28T14:40:00.095Z,90
2019-04-28T14:41:13.166Z,95
2019-04-28T14:42:25.364Z,95
2019-04-28T14:43:37.585Z,95
2019-04-28T14:44:49.762Z,101
2019-04-28T14:46:01.955Z,101
2019-04-28T14:47:14.162Z,112
2019-04-28T14:48:26.363Z,101
2019-04-28T14:49:38.565Z,95
2019-04-28T14:50:50.774Z,84
2019-04-28T14:52:02.968Z,90
2019-04-28T14:53:15.172Z,84
2019-04-28T14:54:27.373Z,84
2019-04-28T14:55:39.567Z,78
2019-04-28T14:56:51.774Z,78
2019-04-28T14:58:03.973Z,67
2019-04-28T14:59:16.182Z,67
2019-04-28T15:00:28.373Z,73
2019-04-28T15:01:40.573Z,78
2019-04-28T15:02:52.780Z,73
2019-04-28T15:04:04.982Z,73
2019-04-28T15:05:17.186Z,73
2019-04-28T15:06:29.380Z,73
2019-04-28T15:07:41.582Z,67
2019-04-28T15:08:53.793Z,67
2019-04-28T15:10:05.986Z,61
2019-04-28T15:11:18.180Z,61
2019-04-28T15:12:30.425Z,67
2019-04-28T15:13:42.592Z,78
2019-04-28T15:14:54.784Z,73
2019-04-28T15:16:06.990Z,73
2019-04-28T15:17:19.191Z,73
2019-04-28T15:18:31.386Z,67
2019-04-28T15:19:43.590Z,56
2019-04-28T15:20:55.787Z,56
2019-04-28T15:22:07.992Z,50
2019-04-28T15:23:20.201Z,50
2019-04-28T15:24:32.412Z,50
2019-04-28T15:25:44.623Z,50
2019-04-28T15:26:56.843Z,56
2019-04-28T15:28:09.007Z,61
2019-04-28T15:29:21.220Z,67
2019-04-28T15:30:33.395Z,67
2019-04-28T15:31:45.598Z,67
2019-04-28T15:32:57.798Z,67
2019-04-28T15:34:10.009Z,67
2019-04-28T15:35:22.209Z,73
2019-04-28T15:36:34.411Z,67
2019-04-28T15:37:46.605Z,67
2019-04-28T15:38:58.808Z,73
2019-04-28T15:40:11.012Z,73
2019-04-28T15:41:23.211Z,78
2019-04-28T15:42:35.404Z,84
2019-04-28T15:43:47.606Z,73
2019-04-28T15:44:59.845Z,67
2019-04-28T15:46:12.019Z,84
2019-04-28T15:47:24.219Z,84
2019-04-28T15:48:36.431Z,90
2019-04-28T15:49:48.627Z,106
2019-04-28T15:51:00.818Z,106
2019-04-28T15:52:13.019Z,101
2019-04-28T15:53:25.215Z,106
2019-04-28T15:54:37.420Z,101
2019-04-28T15:57:01.830Z,95
2019-04-28T15:58:14.028Z,90
2019-04-28T15:59:26.231Z,78
2019-04-28T16:00:38.425Z,78
2019-04-28T16:01:50.639Z,73
2019-04-28T16:03:02.826Z,67
2019-04-28T16:04:15.033Z,56
2019-04-28T16:05:27.243Z,50
2019-04-28T16:06:39.779Z,50
2019-04-28T16:07:51.638Z,45
2019-04-28T16:09:03.838Z,45
2019-04-28T16:10:17.394Z,45
2019-04-28T16:11:28.023Z,39
2019-04-28T16:12:40.724Z,45
2019-04-28T16:13:52.707Z,50
2019-04-28T16:15:04.846Z,56
2019-04-28T16:16:17.181Z,61
2019-04-28T16:17:29.249Z,61
2019-04-28T16:18:41.450Z,56
2019-04-28T16:19:53.652Z,56
2019-04-28T16:21:05.084Z,56
2019-04-28T16:22:18.049Z,56
2019-04-28T16:23:30.243Z,56
2019-04-28T16:24:42.458Z,56
2019-04-28T16:25:54.663Z,50
2019-04-28T16:27:06.008Z,45
2019-04-28T16:28:19.060Z,45
2019-04-28T16:29:31.255Z,50
2019-04-28T16:30:43.450Z,45
2019-04-28T16:31:55.657Z,45
2019-04-28T16:33:07.853Z,45
2019-04-28T16:34:20.069Z,45
2019-04-28T16:35:32.259Z,39
2019-04-28T16:36:44.000Z,45
2019-04-28T16:37:56.670Z,50
2019-04-28T16:39:08.867Z,61
2019-04-28T16:40:21.065Z,61
2019-04-28T16:41:33.270Z,61
2019-04-28T16:42:45.466Z,61
2019-04-28T16:43:57.676Z,61
2019-04-28T16:45:09.870Z,61
2019-04-28T16:46:22.075Z,67
2019-04-28T16:47:34.277Z,73
2019-04-28T16:48:46.478Z,78
2019-04-28T16:49:58.674Z,78
2019-04-28T16:51:10.876Z,78
2019-04-28T16:52:23.007Z,78
2019-04-28T16:53:35.281Z,73
2019-04-28T16:54:47.485Z,73
2019-04-28T16:55:59.691Z,67
2019-04-28T16:57:11.891Z,67
2019-04-28T16:58:24.083Z,67
2019-04-28T16:59:36.290Z,67
2019-04-28T17:00:48.486Z,61
2019-04-28T17:02:00.686Z,67
2019-04-28T17:03:12.886Z,67
2019-04-28T17:04:25.102Z,67
2019-04-28T17:05:37.298Z,67
2019-04-28T17:06:49.495Z,67
2019-04-28T17:08:01.691Z,67
2019-04-28T17:09:13.897Z,61
2019-04-28T17:10:26.094Z,56
2019-04-28T17:11:38.300Z,56
2019-04-28T17:12:50.493Z,56
2019-04-28T17:14:02.700Z,56
2019-04-28T17:15:14.911Z,56
2019-04-28T17:16:27.105Z,56
2019-04-28T17:17:39.304Z,56
2019-04-28T17:18:51.513Z,56
2019-04-28T17:20:03.719Z,56
2019-04-28T17:21:15.912Z,56
2019-04-28T17:22:28.001Z,50
2019-04-28T17:23:40.315Z,45
2019-04-28T17:24:52.515Z,39
2019-04-28T17:26:04.730Z,39
2019-04-28T17:27:16.909Z,33
2019-04-28T17:28:29.113Z,33
2019-04-28T17:29:41.315Z,33